KOEO/OEO METAR and TAF weather

Enter ICAO airport designator
Station Type Date Time Source
KOEO METAR 2019/12/08 00:55 UTC NOAA

KOEO 080055Z AUTO 16007KT 10SM CLR 02/M01 A2984 RMK AO2 T00161010


Station Type Date Time Source
KOEO Decoded METAR 2019/12/08 00:55 UTC NOAA

Osceola, L O Simenstad Municipal Airport, WI, United States (KOEO) 45-18-31N 092-41-24W
Dec 07, 2019 - 07:55 PM EST / 2019.12.08 0055 UTC
Wind: from the SSE (160 degrees) at 8 MPH (7 KT):0
Visibility: 10 mile(s):0
Sky conditions: clear
Temperature: 34.9 F (1.6 C)
Windchill: 28 F (-2 C):1
Dew Point: 30.2 F (-1.0 C)
Relative Humidity: 82%
Pressure (altimeter): 29.84 in. Hg (1010 hPa)
ob: KOEO 080055Z AUTO 16007KT 10SM CLR 02/M01 A2984 RMK AO2 T00161010
cycle: 1

Station Type Date Time Source
KOEO TAF UTC NOAA

Error!

Example: see airport list